createdAt,value
2022-09-10T00:01:36.510Z,99.90
2022-09-10T00:04:08.213Z,99.90
2022-09-10T00:06:38.660Z,99.90
2022-09-10T00:09:07.316Z,99.90
2022-09-10T00:11:37.104Z,99.90
2022-09-10T00:14:09.047Z,99.90
2022-09-10T00:16:36.630Z,99.90
2022-09-10T00:19:04.419Z,99.90
2022-09-10T00:21:32.109Z,99.90
2022-09-10T00:24:01.928Z,99.90
2022-09-10T00:26:34.497Z,99.90
2022-09-10T00:29:02.326Z,99.90
2022-09-10T00:31:31.979Z,99.90
2022-09-10T00:34:01.159Z,99.90
2022-09-10T00:36:36.589Z,99.90
2022-09-10T00:39:13.781Z,99.90
2022-09-10T00:41:43.738Z,99.90
2022-09-10T00:44:41.986Z,99.90
2022-09-10T00:47:35.236Z,99.90
2022-09-10T00:50:18.298Z,99.90
2022-09-10T00:52:47.525Z,99.90
2022-09-10T00:55:16.849Z,99.90
2022-09-10T00:57:47.638Z,99.90
2022-09-10T01:00:16.220Z,99.90
2022-09-10T01:02:44.272Z,99.90
2022-09-10T01:05:13.335Z,99.90
2022-09-10T01:07:41.847Z,99.90
2022-09-10T01:10:21.738Z,99.90
2022-09-10T01:13:28.828Z,99.90
2022-09-10T01:16:18.874Z,99.90
2022-09-10T01:18:55.663Z,99.90
2022-09-10T01:21:34.806Z,99.90
2022-09-10T01:24:24.351Z,99.90
2022-09-10T01:27:11.507Z,99.90
2022-09-10T01:29:52.208Z,99.90
2022-09-10T01:32:52.474Z,99.90
2022-09-10T01:35:32.274Z,99.90
2022-09-10T01:38:05.143Z,99.90
2022-09-10T01:40:34.275Z,99.90
2022-09-10T01:43:10.143Z,99.90
2022-09-10T01:45:52.595Z,99.90
2022-09-10T01:48:54.735Z,99.90
2022-09-10T01:51:31.854Z,99.90
2022-09-10T01:54:19.174Z,99.90
2022-09-10T01:57:16.950Z,99.90
2022-09-10T02:00:16.148Z,99.90
2022-09-10T02:02:59.222Z,99.90
2022-09-10T02:05:35.227Z,99.90
2022-09-10T02:08:23.544Z,99.90
2022-09-10T02:10:59.255Z,99.90
2022-09-10T02:13:30.871Z,99.90
2022-09-10T02:16:23.829Z,99.90
2022-09-10T02:18:51.606Z,99.90
2022-09-10T02:21:19.719Z,99.90
2022-09-10T02:23:52.331Z,99.90
2022-09-10T02:26:20.255Z,99.90
2022-09-10T02:28:49.642Z,99.90
2022-09-10T02:31:18.800Z,99.90
2022-09-10T02:33:46.553Z,99.90
2022-09-10T02:36:14.124Z,99.90
2022-09-10T02:38:42.133Z,99.90
2022-09-10T02:41:10.078Z,99.90
2022-09-10T02:43:38.270Z,99.90
2022-09-10T02:46:09.460Z,99.90
2022-09-10T02:48:40.091Z,99.90
2022-09-10T02:51:09.766Z,99.90
2022-09-10T02:53:39.232Z,99.90
2022-09-10T02:56:08.863Z,99.90
2022-09-10T02:58:38.151Z,99.90
2022-09-10T03:01:11.244Z,99.90
2022-09-10T03:03:39.810Z,99.90
2022-09-10T03:06:07.783Z,99.90
2022-09-10T03:08:35.694Z,99.90
2022-09-10T03:11:04.486Z,99.90
2022-09-10T03:13:34.762Z,99.90
2022-09-10T03:16:04.098Z,99.90
2022-09-10T03:18:35.334Z,99.90
2022-09-10T03:21:29.515Z,99.90
2022-09-10T03:23:58.476Z,99.90
2022-09-10T03:26:30.517Z,99.90
2022-09-10T03:28:58.410Z,99.90
2022-09-10T03:31:28.997Z,99.90
2022-09-10T03:33:59.921Z,99.90
2022-09-10T03:36:31.587Z,99.90
2022-09-10T03:39:00.114Z,99.90
2022-09-10T03:41:31.746Z,99.90
2022-09-10T03:44:00.150Z,99.90
2022-09-10T03:46:28.184Z,99.90
2022-09-10T03:48:58.653Z,99.90
2022-09-10T03:51:28.942Z,99.90
2022-09-10T03:53:59.732Z,99.90
2022-09-10T03:56:27.746Z,99.90
2022-09-10T03:58:55.270Z,99.90
2022-09-10T04:01:22.953Z,99.90
2022-09-10T04:03:53.959Z,99.90
2022-09-10T04:06:21.547Z,99.90
2022-09-10T04:08:50.471Z,99.90
2022-09-10T04:11:19.707Z,99.90
2022-09-10T04:13:49.125Z,99.90
2022-09-10T04:16:17.026Z,99.90
2022-09-10T04:18:45.354Z,99.90
2022-09-10T04:21:16.122Z,99.90
2022-09-10T04:23:45.689Z,99.90
2022-09-10T04:26:15.274Z,99.90
2022-09-10T04:28:45.444Z,99.90
2022-09-10T04:31:13.187Z,99.90
2022-09-10T04:33:40.858Z,99.90
2022-09-10T04:36:08.699Z,99.90
2022-09-10T04:38:41.617Z,99.90
2022-09-10T04:41:09.800Z,99.90
2022-09-10T04:43:38.131Z,99.90
2022-09-10T04:46:07.358Z,99.90
2022-09-10T04:48:39.187Z,99.90
2022-09-10T04:51:16.861Z,99.90
2022-09-10T04:53:50.185Z,99.90
2022-09-10T04:56:18.799Z,99.90
2022-09-10T04:58:47.261Z,99.90
2022-09-10T05:01:15.086Z,99.90
2022-09-10T05:03:45.007Z,99.90
2022-09-10T05:06:13.367Z,99.90
2022-09-10T05:08:41.379Z,99.90
2022-09-10T05:11:11.525Z,99.90
2022-09-10T05:13:39.492Z,99.90
2022-09-10T05:16:07.768Z,99.90
2022-09-10T05:18:35.878Z,99.90
2022-09-10T05:21:05.352Z,99.90
2022-09-10T05:23:34.394Z,99.90
2022-09-10T05:26:02.678Z,99.90
2022-09-10T05:28:31.167Z,99.90
2022-09-10T05:30:58.812Z,99.90
2022-09-10T05:33:28.879Z,99.90
2022-09-10T05:35:57.242Z,99.90
2022-09-10T05:38:26.562Z,99.90
2022-09-10T05:40:54.732Z,99.90
2022-09-10T05:43:22.648Z,99.90
2022-09-10T05:45:52.341Z,99.90
2022-09-10T05:48:21.293Z,99.90
2022-09-10T05:50:49.488Z,99.90
2022-09-10T05:53:17.408Z,99.90
2022-09-10T05:55:46.141Z,99.90
2022-09-10T05:58:14.062Z,99.90
2022-09-10T06:00:46.752Z,99.90
2022-09-10T06:03:14.619Z,99.90
2022-09-10T06:05:52.795Z,99.90
2022-09-10T06:08:25.049Z,99.90
2022-09-10T06:11:05.891Z,99.90
2022-09-10T06:13:43.858Z,99.90
2022-09-10T06:16:13.027Z,99.90
2022-09-10T06:18:42.573Z,99.90
2022-09-10T06:21:17.799Z,99.90
2022-09-10T06:23:52.983Z,99.90
2022-09-10T06:26:21.085Z,99.90
2022-09-10T06:28:50.469Z,99.90
2022-09-10T06:31:19.787Z,99.90
2022-09-10T06:33:49.102Z,99.90
2022-09-10T06:36:20.283Z,99.90
2022-09-10T06:38:50.118Z,99.90
2022-09-10T06:41:18.559Z,99.90
2022-09-10T06:43:58.399Z,99.90
2022-09-10T06:49:25.168Z,99.90
2022-09-10T06:51:53.444Z,99.90
2022-09-10T06:54:21.003Z,99.90
2022-09-10T06:56:49.369Z,99.90
2022-09-10T06:59:18.442Z,99.90
2022-09-10T07:01:49.484Z,99.90
2022-09-10T07:04:18.373Z,99.90
2022-09-10T07:06:47.588Z,99.90
2022-09-10T07:09:16.723Z,99.90
2022-09-10T07:11:52.025Z,99.90
2022-09-10T07:14:19.802Z,99.90
2022-09-10T07:16:50.257Z,99.90
2022-09-10T07:19:18.902Z,99.90
2022-09-10T07:21:48.351Z,99.90
2022-09-10T07:24:17.314Z,99.90
2022-09-10T07:26:57.769Z,99.90
2022-09-10T07:29:25.794Z,99.90
2022-09-10T07:31:54.748Z,99.90
2022-09-10T07:34:25.438Z,99.90
2022-09-10T07:36:56.785Z,99.90
2022-09-10T07:39:26.083Z,99.90
2022-09-10T07:41:56.729Z,99.90
2022-09-10T07:44:27.960Z,99.90
2022-09-10T07:46:59.445Z,99.90
2022-09-10T07:49:27.898Z,99.90
2022-09-10T07:51:59.853Z,99.90
2022-09-10T07:54:32.738Z,99.90
2022-09-10T07:57:01.251Z,99.90
2022-09-10T07:59:29.116Z,99.90
2022-09-10T08:02:00.489Z,99.90
2022-09-10T08:04:36.769Z,99.90
2022-09-10T08:07:08.063Z,99.90
2022-09-10T08:09:38.867Z,99.90
2022-09-10T08:12:09.034Z,99.90
2022-09-10T08:14:39.415Z,99.90
2022-09-10T08:17:08.404Z,99.90
2022-09-10T08:19:40.689Z,99.90
2022-09-10T08:22:13.260Z,99.90
2022-09-10T08:24:47.897Z,99.90
2022-09-10T08:27:16.922Z,99.90
2022-09-10T08:29:44.624Z,99.90
2022-09-10T08:32:13.206Z,99.90
2022-09-10T08:34:41.587Z,99.90
2022-09-10T08:37:12.490Z,99.90
2022-09-10T08:39:41.061Z,99.90
2022-09-10T08:42:24.811Z,99.90
2022-09-10T08:45:07.627Z,99.90
2022-09-10T08:48:03.085Z,99.90
2022-09-10T08:50:57.767Z,99.90
2022-09-10T08:53:48.821Z,99.90
2022-09-10T08:56:22.334Z,99.90
2022-09-10T08:59:17.401Z,99.90
2022-09-10T09:02:01.244Z,99.90
2022-09-10T09:04:47.576Z,99.90
2022-09-10T09:07:19.877Z,99.90
2022-09-10T09:09:52.756Z,99.90
2022-09-10T09:12:49.723Z,99.90
2022-09-10T09:15:25.713Z,99.90
2022-09-10T09:18:12.032Z,99.90
2022-09-10T09:20:47.159Z,99.90
2022-09-10T09:24:13.986Z,99.90
2022-09-10T09:26:50.060Z,99.90
2022-09-10T09:29:47.191Z,99.90
2022-09-10T09:32:20.480Z,99.90
2022-09-10T09:35:12.674Z,99.90
2022-09-10T09:37:48.266Z,99.90
2022-09-10T09:40:25.567Z,99.90
2022-09-10T09:42:56.618Z,99.90
2022-09-10T09:45:38.432Z,99.90
2022-09-10T09:48:10.125Z,99.90
2022-09-10T09:50:41.752Z,99.90
2022-09-10T09:53:31.002Z,99.90
2022-09-10T09:56:01.151Z,99.90
2022-09-10T09:58:32.111Z,99.90
2022-09-10T10:01:09.742Z,99.90
2022-09-10T10:03:59.029Z,99.90
2022-09-10T10:06:47.545Z,99.90
2022-09-10T10:09:25.095Z,99.90
2022-09-10T10:12:06.432Z,99.90
2022-09-10T10:14:41.497Z,99.40
2022-09-10T10:17:41.652Z,98.60
2022-09-10T10:20:11.160Z,97.90
2022-09-10T10:22:40.633Z,97.80
2022-09-10T10:25:34.511Z,96.10
2022-09-10T10:28:02.598Z,95.50
2022-09-10T10:30:32.173Z,95.70
2022-09-10T10:33:02.175Z,96.30
2022-09-10T10:35:35.633Z,96.90
2022-09-10T10:38:28.078Z,97.10
2022-09-10T10:41:20.299Z,97.70
2022-09-10T10:44:14.446Z,98.00
2022-09-10T10:46:58.521Z,98.70
2022-09-10T10:49:32.236Z,99.40
2022-09-10T10:52:15.439Z,99.80
2022-09-10T10:54:49.010Z,99.90
2022-09-10T10:57:44.743Z,99.90
2022-09-10T11:00:16.158Z,99.90
2022-09-10T11:02:49.707Z,99.60
2022-09-10T11:05:38.428Z,98.80
2022-09-10T11:08:15.421Z,99.00
2022-09-10T11:10:51.687Z,99.20
2022-09-10T11:13:43.656Z,97.80
2022-09-10T11:16:31.797Z,96.20
2022-09-10T11:19:11.533Z,93.10
2022-09-10T11:22:01.327Z,91.50
2022-09-10T11:24:55.788Z,87.50
2022-09-10T11:27:37.682Z,85.10
2022-09-10T11:30:10.654Z,83.90
2022-09-10T11:32:59.830Z,84.30
2022-09-10T11:35:48.269Z,81.50
2022-09-10T11:38:35.395Z,76.40
2022-09-10T11:41:19.157Z,74.70
2022-09-10T11:44:04.012Z,72.70
2022-09-10T11:46:40.795Z,73.50
2022-09-10T11:49:21.783Z,74.50
2022-09-10T11:51:49.447Z,75.90
2022-09-10T11:54:24.720Z,77.00
2022-09-10T11:57:06.788Z,78.70
2022-09-10T11:59:52.980Z,79.90
2022-09-10T12:02:26.708Z,81.30
2022-09-10T12:05:19.546Z,82.40
2022-09-10T12:08:19.050Z,82.50
2022-09-10T12:11:14.063Z,83.80
2022-09-10T12:13:43.102Z,84.70
2022-09-10T12:16:25.363Z,86.10
2022-09-10T12:18:54.535Z,86.50
2022-09-10T12:21:39.719Z,88.00
2022-09-10T12:24:25.756Z,89.30
2022-09-10T12:26:54.483Z,89.80
2022-09-10T12:29:31.307Z,90.20
2022-09-10T12:32:20.545Z,90.50
2022-09-10T12:35:08.547Z,90.70
2022-09-10T12:37:36.135Z,90.90
2022-09-10T12:40:25.832Z,91.40
2022-09-10T12:43:20.782Z,91.50
2022-09-10T12:46:17.646Z,92.00
2022-09-10T12:48:55.500Z,92.00
2022-09-10T12:51:36.095Z,92.00
2022-09-10T12:54:34.694Z,91.90
2022-09-10T12:57:53.348Z,92.00
2022-09-10T13:00:22.240Z,92.10
2022-09-10T13:03:17.167Z,92.00
2022-09-10T13:05:44.668Z,90.00
2022-09-10T13:08:21.417Z,88.20
2022-09-10T13:11:10.595Z,83.70
2022-09-10T13:13:40.669Z,77.80
2022-09-10T13:16:20.364Z,74.90
2022-09-10T13:18:48.795Z,70.40
2022-09-10T13:21:25.415Z,69.60
2022-09-10T13:23:53.761Z,68.90
2022-09-10T13:26:31.321Z,66.60
2022-09-10T13:29:04.828Z,65.20
2022-09-10T13:31:40.056Z,65.60
2022-09-10T13:34:14.181Z,66.60
2022-09-10T13:36:56.709Z,67.60
2022-09-10T13:39:40.098Z,69.10
2022-09-10T13:42:46.066Z,69.90
2022-09-10T13:45:16.795Z,71.50
2022-09-10T13:47:57.346Z,73.40
2022-09-10T13:50:53.839Z,74.50
2022-09-10T13:53:22.632Z,75.70
2022-09-10T13:56:00.958Z,76.50
2022-09-10T13:58:36.575Z,77.80
2022-09-10T14:01:05.234Z,79.20
2022-09-10T14:03:37.911Z,80.00
2022-09-10T14:06:07.743Z,81.90
2022-09-10T14:08:49.497Z,82.70
2022-09-10T14:11:22.010Z,84.50
2022-09-10T14:13:55.427Z,86.10
2022-09-10T14:16:40.935Z,87.10
2022-09-10T14:19:27.973Z,87.60
2022-09-10T14:21:57.857Z,88.20
2022-09-10T14:24:55.271Z,88.60
2022-09-10T14:27:31.050Z,88.30
2022-09-10T14:30:23.171Z,88.40
2022-09-10T14:32:52.189Z,89.30
2022-09-10T14:35:43.596Z,89.80
2022-09-10T14:38:20.314Z,90.10
2022-09-10T14:40:48.211Z,90.50
2022-09-10T14:43:38.097Z,90.70
2022-09-10T14:46:10.726Z,90.90
2022-09-10T14:48:39.510Z,91.20
2022-09-10T14:51:18.647Z,91.20
2022-09-10T14:53:54.313Z,91.30
2022-09-10T14:56:37.950Z,91.40
2022-09-10T14:59:18.591Z,91.40
2022-09-10T15:01:48.439Z,91.70
2022-09-10T15:04:18.908Z,92.00
2022-09-10T15:06:46.480Z,92.30
2022-09-10T15:09:15.026Z,92.40
2022-09-10T15:11:48.904Z,92.30
2022-09-10T15:14:17.381Z,92.20
2022-09-10T15:16:45.042Z,92.20
2022-09-10T15:19:12.551Z,92.00
2022-09-10T15:21:40.576Z,92.00
2022-09-10T15:24:15.466Z,91.90
2022-09-10T15:26:43.563Z,91.90
2022-09-10T15:29:11.558Z,92.10
2022-09-10T15:31:39.288Z,92.00
2022-09-10T15:34:08.415Z,92.10
2022-09-10T15:36:37.341Z,92.30
2022-09-10T15:39:06.047Z,92.40
2022-09-10T15:41:34.508Z,92.50
2022-09-10T15:44:03.227Z,92.60
2022-09-10T15:46:30.905Z,92.70
2022-09-10T15:49:01.486Z,92.80
2022-09-10T15:51:29.036Z,92.30
2022-09-10T15:53:56.562Z,92.10
2022-09-10T15:56:26.595Z,91.90
2022-09-10T15:58:56.613Z,91.90
2022-09-10T16:01:26.296Z,91.80
2022-09-10T16:04:02.823Z,91.90
2022-09-10T16:06:36.219Z,92.00
2022-09-10T16:09:09.701Z,92.10
2022-09-10T16:11:39.639Z,92.10
2022-09-10T16:14:11.256Z,91.90
2022-09-10T16:16:40.963Z,91.90
2022-09-10T16:19:11.854Z,92.00
2022-09-10T16:21:39.363Z,92.20
2022-09-10T16:24:07.394Z,92.20
2022-09-10T16:26:37.912Z,92.40
2022-09-10T16:29:14.893Z,92.50
2022-09-10T16:31:46.014Z,92.60
2022-09-10T16:34:17.585Z,92.70
2022-09-10T16:36:48.799Z,93.00
2022-09-10T16:39:16.967Z,93.00
2022-09-10T16:41:46.931Z,93.10
2022-09-10T16:44:16.391Z,93.20
2022-09-10T16:46:44.358Z,93.20
2022-09-10T16:49:15.269Z,93.30
2022-09-10T16:51:44.536Z,93.40
2022-09-10T16:54:19.419Z,93.80
2022-09-10T16:56:48.353Z,93.80
2022-09-10T16:59:23.709Z,93.90
2022-09-10T17:01:52.168Z,93.90
2022-09-10T17:04:27.544Z,93.90
2022-09-10T17:06:57.448Z,93.90
2022-09-10T17:09:25.598Z,94.10
2022-09-10T17:11:53.416Z,94.10
2022-09-10T17:14:21.262Z,94.20
2022-09-10T17:16:49.979Z,94.50
2022-09-10T17:19:26.411Z,94.20
2022-09-10T17:21:55.787Z,94.30
2022-09-10T17:24:26.731Z,94.40
2022-09-10T17:26:57.687Z,94.70
2022-09-10T17:29:25.876Z,94.90
2022-09-10T17:31:55.300Z,95.30
2022-09-10T17:34:24.573Z,95.70
2022-09-10T17:36:52.373Z,96.10
2022-09-10T17:39:19.939Z,96.20
2022-09-10T17:41:48.317Z,96.50
2022-09-10T17:44:16.102Z,96.60
2022-09-10T17:46:43.717Z,96.90
2022-09-10T17:49:16.733Z,97.10
2022-09-10T17:51:44.761Z,97.20
2022-09-10T17:54:13.462Z,97.50
2022-09-10T17:56:41.933Z,97.80
2022-09-10T17:59:14.237Z,98.10
2022-09-10T18:01:42.092Z,98.30
2022-09-10T18:04:12.803Z,98.60
2022-09-10T18:06:40.857Z,99.00
2022-09-10T18:09:08.723Z,99.40
2022-09-10T18:11:38.859Z,99.80
2022-09-10T18:14:07.196Z,99.90
2022-09-10T18:16:36.339Z,99.90
2022-09-10T18:19:13.870Z,99.90
2022-09-10T18:21:43.837Z,99.90
2022-09-10T18:24:25.130Z,99.90
2022-09-10T18:26:57.409Z,99.90
2022-09-10T18:29:27.135Z,99.90
2022-09-10T18:31:57.086Z,99.90
2022-09-10T18:34:27.801Z,99.90
2022-09-10T18:36:58.349Z,99.90
2022-09-10T18:39:28.673Z,99.90
2022-09-10T18:41:57.305Z,99.90
2022-09-10T18:44:29.511Z,99.90
2022-09-10T18:46:57.130Z,99.90
2022-09-10T18:49:26.102Z,99.90
2022-09-10T18:51:55.865Z,99.90
2022-09-10T18:54:24.863Z,99.90
2022-09-10T18:56:53.488Z,99.90
2022-09-10T18:59:23.241Z,99.90
2022-09-10T19:01:53.463Z,99.90
2022-09-10T19:04:27.699Z,99.90
2022-09-10T19:06:56.940Z,99.90
2022-09-10T19:09:27.196Z,99.90
2022-09-10T19:11:56.597Z,99.90
2022-09-10T19:14:29.996Z,99.90
2022-09-10T19:16:59.574Z,99.90
2022-09-10T19:19:29.669Z,99.90
2022-09-10T19:21:59.643Z,99.90
2022-09-10T19:24:43.959Z,99.90
2022-09-10T19:27:15.284Z,99.90
2022-09-10T19:29:43.168Z,99.90
2022-09-10T19:32:11.538Z,99.90
2022-09-10T19:34:39.339Z,99.90
2022-09-10T19:37:07.344Z,99.90
2022-09-10T19:39:34.989Z,99.90
2022-09-10T19:42:04.219Z,99.90
2022-09-10T19:44:33.628Z,99.90
2022-09-10T19:47:04.052Z,99.90
2022-09-10T19:49:31.823Z,99.90
2022-09-10T19:51:59.420Z,99.90
2022-09-10T19:54:28.594Z,99.90
2022-09-10T19:56:56.603Z,99.90
2022-09-10T19:59:24.251Z,99.90
2022-09-10T20:01:52.052Z,99.90
2022-09-10T20:04:22.095Z,99.90
2022-09-10T20:06:50.441Z,99.90
2022-09-10T20:09:18.032Z,99.90
2022-09-10T20:11:46.063Z,99.90
2022-09-10T20:14:14.819Z,99.90
2022-09-10T20:16:45.262Z,99.90
2022-09-10T20:19:18.032Z,99.90
2022-09-10T20:21:47.956Z,99.90
2022-09-10T20:24:16.259Z,99.90
2022-09-10T20:26:46.455Z,99.90
2022-09-10T20:29:18.553Z,99.90
2022-09-10T20:31:47.190Z,99.90
2022-09-10T20:34:17.766Z,99.90
2022-09-10T20:36:45.971Z,99.90
2022-09-10T20:39:15.721Z,99.90
2022-09-10T20:41:45.079Z,99.90
2022-09-10T20:44:15.231Z,99.90
2022-09-10T20:46:43.418Z,99.90
2022-09-10T20:49:12.643Z,99.90
2022-09-10T20:51:41.043Z,99.90
2022-09-10T20:54:14.743Z,99.90
2022-09-10T20:56:43.072Z,99.90
2022-09-10T20:59:17.963Z,99.90
2022-09-10T21:01:47.259Z,99.90
2022-09-10T21:04:15.333Z,99.90
2022-09-10T21:06:43.076Z,99.90
2022-09-10T21:09:11.603Z,99.90
2022-09-10T21:11:39.494Z,99.90
2022-09-10T21:14:09.153Z,99.90
2022-09-10T21:16:39.786Z,99.90
2022-09-10T21:19:11.512Z,99.90
2022-09-10T21:21:39.643Z,99.90
2022-09-10T21:24:10.875Z,99.90
2022-09-10T21:26:39.927Z,99.90
2022-09-10T21:29:13.149Z,99.90
2022-09-10T21:31:41.468Z,99.90
2022-09-10T21:34:09.389Z,99.90
2022-09-10T21:36:38.623Z,99.90
2022-09-10T21:39:09.780Z,99.90
2022-09-10T21:41:40.139Z,99.90
2022-09-10T21:44:14.122Z,99.90
2022-09-10T21:46:43.371Z,99.90
2022-09-10T21:49:11.602Z,99.90
2022-09-10T21:51:40.303Z,99.90
2022-09-10T21:54:21.117Z,99.90
2022-09-10T21:56:52.685Z,99.90
2022-09-10T21:59:21.451Z,99.90
2022-09-10T22:01:49.559Z,99.90
2022-09-10T22:04:22.471Z,99.90
2022-09-10T22:06:51.409Z,99.90
2022-09-10T22:09:19.943Z,99.90
2022-09-10T22:11:51.409Z,99.90
2022-09-10T22:14:23.888Z,99.90
2022-09-10T22:16:52.037Z,99.90
2022-09-10T22:19:22.644Z,99.90
2022-09-10T22:21:54.169Z,99.90
2022-09-10T22:24:22.325Z,99.90
2022-09-10T22:26:50.123Z,99.90
2022-09-10T22:29:20.204Z,99.90
2022-09-10T22:31:49.061Z,99.90
2022-09-10T22:34:17.967Z,99.90
2022-09-10T22:37:05.692Z,99.90
2022-09-10T22:42:34.890Z,99.90
2022-09-10T22:45:02.473Z,99.90
2022-09-10T22:47:30.485Z,99.90
2022-09-10T22:49:58.071Z,99.90
2022-09-10T22:52:26.703Z,99.90
2022-09-10T22:54:54.470Z,99.90
2022-09-10T22:57:21.990Z,99.90
2022-09-10T22:59:49.516Z,99.90
2022-09-10T23:02:17.083Z,99.90
2022-09-10T23:04:44.568Z,99.90
2022-09-10T23:07:12.592Z,99.90
2022-09-10T23:09:40.506Z,99.90
2022-09-10T23:12:08.045Z,99.90
2022-09-10T23:14:35.806Z,99.90
2022-09-10T23:17:04.041Z,99.90
2022-09-10T23:19:31.788Z,99.90
2022-09-10T23:21:59.477Z,99.90
2022-09-10T23:24:27.894Z,99.90
2022-09-10T23:26:55.476Z,99.90
2022-09-10T23:29:23.923Z,99.90
2022-09-10T23:31:54.815Z,99.90
2022-09-10T23:34:22.962Z,99.90
2022-09-10T23:36:51.779Z,99.90
2022-09-10T23:39:21.770Z,99.90
2022-09-10T23:41:54.801Z,99.90
2022-09-10T23:44:22.677Z,99.90
2022-09-10T23:46:50.701Z,99.90
2022-09-10T23:49:18.485Z,99.90
2022-09-10T23:51:46.205Z,99.90
2022-09-10T23:54:13.808Z,99.90
2022-09-10T23:56:42.034Z,99.90
2022-09-10T23:59:10.692Z,99.90
